Time;durP1;ratioP1;P1;durP2;ratioP2;P2;SDS_P1;SDS_P2;PMS_P1;PMS_P2;Temp;Humidity;BMP_temperature;BMP_pressure;BME280_temperature;BME280_humidity;BME280_pressure;Samples;Min_cycle;Max_cycle;Signal;HPM_P1;HPM_P2
2023/08/15 00:00:22;;;;;;;13.25;3.22;;;;;;;18.96;100.00;100473.09;4935068;29;20525;-74
2023/08/15 00:03:26;;;;;;;10.07;3.05;;;;;;;18.97;100.00;100474.75;4912427;29;20075;-74
2023/08/15 00:06:29;;;;;;;10.70;3.10;;;;;;;18.93;100.00;100470.72;4934905;29;20083;-76
2023/08/15 00:09:32;;;;;;;11.82;3.70;;;;;;;18.93;100.00;100465.41;4935177;29;20046;-75
2023/08/15 00:12:36;;;;;;;11.52;3.65;;;;;;;18.93;100.00;100462.78;4935028;29;20054;-76
2023/08/15 00:15:40;;;;;;;6.05;2.72;;;;;;;18.94;100.00;100456.50;4934530;29;20091;-76
2023/08/15 00:18:44;;;;;;;6.93;2.83;;;;;;;19.01;100.00;100457.63;4934822;29;20462;-76
2023/08/15 00:21:48;;;;;;;8.40;2.67;;;;;;;19.05;100.00;100445.78;4934797;29;20042;-76
2023/08/15 00:24:51;;;;;;;7.63;3.25;;;;;;;19.14;100.00;100446.75;4934669;29;20046;-76
2023/08/15 00:27:55;;;;;;;13.52;3.05;;;;;;;19.05;100.00;100443.13;4934773;29;20042;-75
2023/08/15 00:30:58;;;;;;;10.23;2.88;;;;;;;18.95;100.00;100439.59;4934960;29;20070;-76
2023/08/15 00:34:03;;;;;;;7.60;3.00;;;;;;;18.90;100.00;100431.25;4934703;29;20106;-76
2023/08/15 00:37:07;;;;;;;9.70;2.88;;;;;;;18.90;100.00;100429.44;4934608;29;20043;-76
2023/08/15 00:40:11;;;;;;;10.70;3.22;;;;;;;18.89;100.00;100432.19;4934809;29;20098;-76
2023/08/15 00:43:17;;;;;;;11.30;3.15;;;;;;;18.87;100.00;100423.56;4922692;29;20414;-76
2023/08/15 00:46:21;;;;;;;9.15;3.28;;;;;;;18.87;100.00;100426.22;4934574;29;20118;-76
2023/08/15 00:49:25;;;;;;;7.63;2.97;;;;;;;18.89;100.00;100424.25;4922782;29;20406;-75
2023/08/15 00:52:28;;;;;;;5.60;3.08;;;;;;;19.01;100.00;100418.69;4922852;29;20537;-75
2023/08/15 00:55:33;;;;;;;9.60;3.38;;;;;;;19.00;100.00;100417.03;4934793;29;20054;-75
2023/08/15 00:58:36;;;;;;;13.32;2.88;;;;;;;18.93;100.00;100407.97;4934448;29;20516;-75
2023/08/15 01:01:39;;;;;;;9.73;3.15;;;;;;;18.86;100.00;100417.44;4922859;29;20051;-75
2023/08/15 01:04:50;;;;;;;6.80;3.15;;;;;;;18.93;100.00;100417.72;4934332;29;20090;-75
2023/08/15 01:07:53;;;;;;;8.07;2.75;;;;;;;18.99;100.00;100419.84;4922639;29;20128;-75
2023/08/15 01:10:56;;;;;;;10.82;3.13;;;;;;;18.85;100.00;100414.91;4933457;29;20067;-75
2023/08/15 01:14:06;;;;;;;10.95;3.25;;;;;;;18.79;100.00;100422.44;4934138;29;20070;-76
2023/08/15 01:17:15;;;;;;;6.90;3.35;;;;;;;18.90;100.00;100418.00;4922513;29;20478;-76
2023/08/15 01:20:26;;;;;;;6.43;2.53;;;;;;;18.81;100.00;100419.66;4936166;29;20138;-76
2023/08/15 01:23:49;;;;;;;13.02;2.72;;;;;;;18.79;100.00;100426.88;4915251;29;20094;-75
2023/08/15 01:26:52;;;;;;;6.53;3.13;;;;;;;18.83;100.00;100423.00;4937765;29;20452;-75
2023/08/15 01:29:56;;;;;;;10.85;2.45;;;;;;;18.83;100.00;100415.06;4937483;29;20050;-75
2023/08/15 01:33:22;;;;;;;12.07;2.40;;;;;;;18.79;100.00;100427.75;4937635;29;20107;-75
2023/08/15 01:36:33;;;;;;;11.13;2.90;;;;;;;18.69;100.00;100418.03;4937469;29;20186;-75
2023/08/15 01:39:38;;;;;;;10.75;3.00;;;;;;;18.80;100.00;100418.81;4925474;29;20095;-75
2023/08/15 01:42:41;;;;;;;10.88;3.15;;;;;;;18.85;100.00;100414.91;4925435;29;20433;-75
2023/08/15 01:45:47;;;;;;;8.52;2.60;;;;;;;18.75;100.00;100426.31;4925374;29;20043;-75
2023/08/15 01:48:50;;;;;;;15.10;3.00;;;;;;;18.67;100.00;100428.78;4937161;29;20046;-75
2023/08/15 01:51:54;;;;;;;6.78;2.95;;;;;;;18.72;100.00;100421.28;4937129;29;20054;-76
2023/08/15 01:54:59;;;;;;;9.57;3.10;;;;;;;18.71;100.00;100419.59;4937074;29;20399;-75
2023/08/15 01:58:03;;;;;;;11.77;2.85;;;;;;;18.68;100.00;100424.31;4925220;29;20115;-75
2023/08/15 02:01:14;;;;;;;8.95;2.95;;;;;;;18.68;100.00;100419.03;4936177;29;20401;-76
2023/08/15 02:04:19;;;;;;;8.88;3.17;;;;;;;18.66;100.00;100435.03;4924899;29;20070;-76
2023/08/15 02:07:25;;;;;;;10.57;3.28;;;;;;;18.68;100.00;100450.81;4937101;29;20058;-77
2023/08/15 02:10:28;;;;;;;12.57;2.70;;;;;;;18.71;100.00;100450.53;4936836;29;20053;-76
2023/08/15 02:13:33;;;;;;;8.98;3.08;;;;;;;18.76;100.00;100451.00;4925139;29;20573;-76
2023/08/15 02:16:36;;;;;;;10.55;2.90;;;;;;;18.73;100.00;100453.91;4898094;29;20097;-76
2023/08/15 02:19:41;;;;;;;6.28;2.78;;;;;;;18.73;100.00;100449.47;4898074;29;20059;-76
2023/08/15 02:22:44;;;;;;;7.60;3.33;;;;;;;18.74;100.00;100445.84;4908929;29;20117;-76
2023/08/15 02:25:48;;;;;;;9.02;2.70;;;;;;;18.70;100.00;100444.41;4897787;29;20047;-76
2023/08/15 02:28:51;;;;;;;12.75;3.20;;;;;;;18.72;100.00;100444.25;4898678;29;20051;-76
2023/08/15 02:31:56;;;;;;;7.82;2.95;;;;;;;18.71;100.00;100443.44;4898469;29;20064;-76
2023/08/15 02:35:02;;;;;;;10.35;2.95;;;;;;;18.72;100.00;100452.22;4908695;29;20462;-76
2023/08/15 02:38:07;;;;;;;8.20;2.83;;;;;;;18.66;100.00;100480.06;4898378;29;20046;-75
2023/08/15 02:41:11;;;;;;;13.13;3.10;;;;;;;18.65;100.00;100496.09;4898361;29;20081;-75
2023/08/15 02:44:14;;;;;;;8.02;2.90;;;;;;;18.77;100.00;100487.97;4908478;29;20077;-75
2023/08/15 02:47:18;;;;;;;12.50;4.13;;;;;;;18.80;100.00;100476.25;4898376;29;20419;-75
2023/08/15 02:50:22;;;;;;;11.70;3.38;;;;;;;18.80;100.00;100431.22;4898210;29;20071;-75
2023/08/15 02:53:26;;;;;;;8.05;3.03;;;;;;;18.73;100.00;100438.88;4898088;29;20430;-75
2023/08/15 02:56:29;;;;;;;7.88;3.30;;;;;;;18.69;100.00;100421.53;4897400;29;20078;-76
2023/08/15 02:59:33;;;;;;;13.85;3.90;;;;;;;18.64;100.00;100418.47;4897249;29;20515;-75
2023/08/15 03:02:36;;;;;;;10.50;3.42;;;;;;;18.69;100.00;100413.59;4898035;29;20117;-75
2023/08/15 03:05:39;;;;;;;8.68;3.53;;;;;;;18.77;100.00;100413.78;4898008;29;20407;-75
2023/08/15 03:08:43;;;;;;;11.13;3.70;;;;;;;18.83;100.00;100448.66;4898107;29;20112;-75
2023/08/15 03:11:47;;;;;;;12.00;3.30;;;;;;;18.87;100.00;100439.47;4898106;29;20051;-75
2023/08/15 03:14:50;;;;;;;13.68;3.63;;;;;;;18.91;100.00;100454.94;4896827;29;20118;-76
2023/08/15 03:17:54;;;;;;;13.23;3.72;;;;;;;18.96;100.00;100443.97;4896869;29;20522;-76
2023/08/15 03:21:03;;;;;;;8.98;3.83;;;;;;;18.87;100.00;100455.38;4897122;29;20052;-76
2023/08/15 03:24:15;;;;;;;12.85;3.58;;;;;;;18.87;100.00;100458.00;4897519;29;20047;-75
2023/08/15 03:27:19;;;;;;;6.53;3.42;;;;;;;18.84;100.00;100471.53;4897589;29;20051;-76
2023/08/15 03:30:26;;;;;;;12.52;3.95;;;;;;;18.79;100.00;100490.47;4896773;29;20136;-76
2023/08/15 03:33:30;;;;;;;10.93;4.10;;;;;;;18.86;100.00;100511.94;4896681;29;20530;-76
2023/08/15 03:36:33;;;;;;;14.52;4.53;;;;;;;18.78;100.00;100659.16;4907643;29;20450;-75
2023/08/15 03:39:40;;;;;;;7.28;3.65;;;;;;;18.86;100.00;100612.63;4896472;29;20100;-75
2023/08/15 03:42:43;;;;;;;8.02;3.60;;;;;;;19.10;100.00;100610.50;4897081;29;20104;-75
2023/08/15 03:45:46;;;;;;;9.88;3.05;;;;;;;19.24;100.00;100601.34;4907508;29;20402;-76
2023/08/15 03:48:51;;;;;;;6.43;2.10;;;;;;;19.30;100.00;100587.56;4896563;29;20481;-76
2023/08/15 03:51:56;;;;;;;5.15;1.25;;;;;;;19.45;100.00;100575.59;4897574;29;20051;-76
2023/08/15 03:54:59;;;;;;;3.00;1.40;;;;;;;19.53;100.00;100569.63;4896514;29;20047;-75
2023/08/15 03:58:02;;;;;;;2.80;1.05;;;;;;;19.51;99.42;100582.19;4897204;29;20103;-75
2023/08/15 04:01:06;;;;;;;2.75;1.13;;;;;;;19.54;98.77;100597.81;4896340;29;20243;-75
2023/08/15 04:04:10;;;;;;;2.22;1.00;;;;;;;19.56;98.50;100603.84;4896687;29;20526;-75
2023/08/15 04:07:17;;;;;;;5.68;1.00;;;;;;;19.57;97.65;100604.69;4897544;29;20403;-75
2023/08/15 04:10:20;;;;;;;4.10;0.82;;;;;;;19.56;99.79;100606.50;4897177;29;20550;-76
2023/08/15 04:13:27;;;;;;;3.55;1.30;;;;;;;19.49;100.00;100589.44;4896322;29;20059;-77
2023/08/15 04:16:30;;;;;;;3.05;1.00;;;;;;;19.45;99.91;100578.25;4885774;29;20171;-77
2023/08/15 04:19:33;;;;;;;5.05;1.23;;;;;;;19.48;100.00;100571.84;4896306;29;20056;-77
2023/08/15 04:22:38;;;;;;;4.95;1.00;;;;;;;19.46;100.00;100574.66;4897143;29;20091;-77
2023/08/15 04:25:41;;;;;;;5.10;1.30;;;;;;;19.40;100.00;100567.25;4907011;29;20080;-77
2023/08/15 04:28:46;;;;;;;5.10;1.17;;;;;;;19.31;100.00;100602.50;4896242;29;20051;-77
2023/08/15 04:31:50;;;;;;;2.78;1.02;;;;;;;19.32;100.00;100608.66;4907250;29;20537;-77
2023/08/15 04:34:53;;;;;;;3.00;1.00;;;;;;;19.34;100.00;100596.13;4896875;29;20148;-77
2023/08/15 04:37:57;;;;;;;5.05;1.10;;;;;;;19.27;100.00;100583.38;4895960;29;20530;-77
2023/08/15 04:41:01;;;;;;;4.90;1.38;;;;;;;19.36;100.00;100533.16;4896114;29;20058;-77
2023/08/15 04:44:05;;;;;;;3.55;1.20;;;;;;;19.42;100.00;100506.09;4895600;29;20104;-83
2023/08/15 04:47:12;;;;;;;7.03;1.13;;;;;;;19.44;100.00;100506.81;4894967;29;20083;-77
2023/08/15 04:50:15;;;;;;;7.00;1.92;;;;;;;19.36;100.00;100478.31;4894389;29;20103;-77
2023/08/15 04:53:23;;;;;;;9.93;1.98;;;;;;;19.28;100.00;100439.25;4895081;29;20114;-77
2023/08/15 04:56:26;;;;;;;7.05;1.80;;;;;;;19.25;100.00;100407.72;4898128;29;20229;-76
2023/08/15 05:03:49;;;;;;;5.20;1.35;;;;;;;19.06;100.00;100450.09;4897778;29;20096;-76
2023/08/15 05:06:57;;;;;;;3.58;1.40;;;;;;;19.05;100.00;100433.38;4897564;29;20052;-80
2023/08/15 05:10:00;;;;;;;9.48;1.80;;;;;;;19.03;100.00;100437.13;4897205;29;20051;-79
2023/08/15 05:13:05;;;;;;;4.43;1.25;;;;;;;19.09;100.00;100439.22;4897219;29;20468;-80
2023/08/15 05:16:08;;;;;;;4.95;1.58;;;;;;;19.14;100.00;100452.06;4897558;29;20056;-80
2023/08/15 05:19:14;;;;;;;5.93;1.50;;;;;;;19.03;100.00;100463.63;4897414;29;20119;-79
2023/08/15 05:22:17;;;;;;;5.32;1.42;;;;;;;18.96;100.00;100475.75;4897394;29;20079;-79
2023/08/15 05:25:21;;;;;;;5.32;1.65;;;;;;;18.93;100.00;100481.31;4897660;29;20052;-80
2023/08/15 05:28:26;;;;;;;6.03;1.55;;;;;;;18.93;100.00;100507.81;4908230;29;20096;-80
2023/08/15 05:31:29;;;;;;;4.63;1.67;;;;;;;18.92;100.00;100530.81;4897213;29;20045;-80
2023/08/15 05:34:33;;;;;;;9.90;1.77;;;;;;;18.89;100.00;100543.47;4897832;29;20127;-80
2023/08/15 05:37:36;;;;;;;4.60;1.50;;;;;;;18.95;100.00;100550.88;4897367;29;20091;-80
2023/08/15 05:40:42;;;;;;;8.48;1.98;;;;;;;19.04;100.00;100563.34;4897305;29;20103;-79
2023/08/15 05:43:46;;;;;;;8.75;1.50;;;;;;;19.10;100.00;100561.97;4898164;29;20071;-79
2023/08/15 05:46:49;;;;;;;7.63;1.60;;;;;;;19.14;100.00;100571.31;4896390;29;20047;-75
2023/08/15 05:49:53;;;;;;;7.05;2.28;;;;;;;19.18;100.00;100578.91;4896513;29;20100;-72
2023/08/15 05:52:56;;;;;;;6.03;1.45;;;;;;;19.25;100.00;100582.69;4896892;29;20059;-74
2023/08/15 05:56:00;;;;;;;6.15;1.85;;;;;;;19.29;100.00;100573.47;4896113;29;20125;-74
2023/08/15 05:59:04;;;;;;;7.63;1.40;;;;;;;19.25;100.00;100561.47;4895928;29;20115;-74
2023/08/15 06:02:07;;;;;;;5.55;1.40;;;;;;;19.29;100.00;100562.88;4897978;29;20067;-74
2023/08/15 06:05:11;;;;;;;5.82;1.98;;;;;;;19.35;100.00;100560.66;4896867;29;20171;-74
2023/08/15 06:08:15;;;;;;;9.40;1.33;;;;;;;19.41;100.00;100562.78;4897585;29;20068;-76
2023/08/15 06:11:18;;;;;;;3.90;1.50;;;;;;;19.47;100.00;100564.88;4897343;29;20101;-72
2023/08/15 06:14:21;;;;;;;3.55;1.23;;;;;;;19.48;100.00;100570.03;4908717;29;20070;-73
2023/08/15 06:17:25;;;;;;;9.85;1.50;;;;;;;19.56;100.00;100564.06;4935086;29;20078;-75
2023/08/15 06:20:28;;;;;;;5.07;1.20;;;;;;;19.61;100.00;100564.47;4934375;29;20503;-73
2023/08/15 06:23:31;;;;;;;3.97;1.10;;;;;;;19.68;100.00;100567.44;4923046;29;20066;-73
2023/08/15 06:26:37;;;;;;;5.70;1.50;;;;;;;19.68;100.00;100555.00;4934999;29;20540;-75
2023/08/15 06:29:41;;;;;;;6.20;0.95;;;;;;;19.67;100.00;100568.41;4934804;29;20462;-76
2023/08/15 06:32:45;;;;;;;6.40;1.48;;;;;;;19.70;100.00;100565.50;4934834;29;20043;-76
2023/08/15 06:35:48;;;;;;;3.13;1.48;;;;;;;19.74;100.00;100567.72;4934975;29;20038;-77
2023/08/15 06:38:51;;;;;;;4.88;0.90;;;;;;;19.82;100.00;100568.88;4934668;29;20094;-78
2023/08/15 06:41:56;;;;;;;6.95;1.23;;;;;;;19.82;100.00;100560.91;4934924;29;20054;-78
2023/08/15 06:45:08;;;;;;;4.38;1.33;;;;;;;19.82;100.00;100558.25;4934708;29;20082;-78
2023/08/15 06:48:18;;;;;;;4.57;1.38;;;;;;;19.86;100.00;100564.94;4934628;29;20075;-78
2023/08/15 06:51:21;;;;;;;8.35;1.25;;;;;;;19.95;100.00;100557.00;4934902;29;20105;-79
2023/08/15 06:54:31;;;;;;;5.57;1.27;;;;;;;20.00;100.00;100543.28;4935066;29;20071;-78
2023/08/15 06:57:34;;;;;;;3.38;1.10;;;;;;;20.03;100.00;100550.97;4941365;29;20512;-78
2023/08/15 07:00:37;;;;;;;5.10;1.25;;;;;;;20.05;100.00;100543.72;4943008;29;20553;-78
2023/08/15 07:03:42;;;;;;;7.57;1.27;;;;;;;20.12;100.00;100551.94;4938631;28;20062;-78
2023/08/15 07:06:47;;;;;;;5.78;1.23;;;;;;;20.19;100.00;100553.06;4942942;29;20051;-79
2023/08/15 07:09:50;;;;;;;3.83;1.27;;;;;;;20.27;100.00;100553.19;4944129;28;20461;-80
2023/08/15 07:12:54;;;;;;;7.25;0.90;;;;;;;20.40;100.00;100552.88;4953666;28;20042;-80
2023/08/15 07:15:58;;;;;;;2.45;0.90;;;;;;;20.43;100.00;100550.78;4953463;28;20632;-79
2023/08/15 07:19:04;;;;;;;1.83;0.68;;;;;;;20.43;100.00;100545.47;4953219;28;20465;-79
2023/08/15 07:22:07;;;;;;;4.53;0.77;;;;;;;20.50;100.00;100543.06;4953667;28;20057;-79
2023/08/15 07:25:11;;;;;;;6.40;0.88;;;;;;;20.57;100.00;100544.19;4941608;29;20409;-78
2023/08/15 07:28:14;;;;;;;3.58;1.10;;;;;;;20.65;99.71;100546.16;4953452;28;20094;-78
2023/08/15 07:31:22;;;;;;;2.67;1.00;;;;;;;20.75;100.00;100533.66;4953553;28;20046;-79
2023/08/15 07:34:25;;;;;;;2.85;0.95;;;;;;;20.82;100.00;100549.84;4953453;28;20046;-79
2023/08/15 07:37:30;;;;;;;2.65;0.85;;;;;;;20.90;100.00;100560.63;4953408;28;20049;-79
2023/08/15 07:40:36;;;;;;;2.88;1.00;;;;;;;21.01;100.00;100568.38;4953078;28;20089;-80
2023/08/15 07:43:45;;;;;;;3.30;1.02;;;;;;;21.05;100.00;100574.25;4941455;29;20110;-79
2023/08/15 07:46:49;;;;;;;5.88;1.05;;;;;;;21.16;100.00;100575.88;4952941;28;20098;-79
2023/08/15 07:50:24;;;;;;;4.57;1.13;;;;;;;21.22;100.00;100580.59;4953042;28;20049;-79
2023/08/15 07:53:39;;;;;;;5.25;1.05;;;;;;;21.32;99.96;100576.09;4953207;28;20110;-78
2023/08/15 07:56:42;;;;;;;5.57;1.25;;;;;;;21.37;97.18;100584.47;4953200;28;20049;-79
2023/08/15 07:59:48;;;;;;;6.22;0.90;;;;;;;21.45;98.07;100581.06;4940991;28;20155;-79
2023/08/15 08:02:59;;;;;;;4.22;0.90;;;;;;;21.54;98.53;100575.69;4941198;28;20117;-79
2023/08/15 08:06:07;;;;;;;2.15;0.80;;;;;;;21.70;98.71;100577.69;4952743;28;20062;-78
2023/08/15 08:09:11;;;;;;;3.78;0.82;;;;;;;21.87;97.47;100588.50;4952934;28;20547;-78
2023/08/15 08:12:15;;;;;;;4.53;0.80;;;;;;;22.01;94.18;100582.63;4953101;28;20472;-77
2023/08/15 08:15:22;;;;;;;2.67;0.90;;;;;;;22.09;91.25;100574.72;4952681;28;20126;-78
2023/08/15 08:18:25;;;;;;;3.55;0.90;;;;;;;22.22;90.89;100575.19;4952499;28;20046;-73
2023/08/15 08:21:39;;;;;;;;;;;;;;;;;;;;;
2023/08/15 08:24:43;;;;;;;2.38;0.70;;;;;;;22.48;90.13;100591.19;4952432;28;20050;-78
2023/08/15 08:27:46;;;;;;;3.67;0.80;;;;;;;22.58;88.84;100584.94;4952338;28;20134;-78
2023/08/15 08:30:49;;;;;;;2.03;0.70;;;;;;;22.68;87.99;100591.81;4956296;28;20043;-77
2023/08/15 08:33:53;;;;;;;3.33;0.82;;;;;;;22.74;87.13;100585.03;4944555;28;20129;-82
2023/08/15 08:36:56;;;;;;;1.38;0.60;;;;;;;22.74;85.74;100590.34;4956100;28;20125;-80
2023/08/15 08:40:09;;;;;;;5.88;1.58;;;;;;;22.77;83.96;100583.88;4956182;28;20051;-73
2023/08/15 08:43:14;;;;;;;4.93;1.10;;;;;;;22.85;84.34;100584.78;4956103;28;20069;-76
2023/08/15 08:46:18;;;;;;;5.35;1.10;;;;;;;22.88;84.12;100587.13;4955940;28;20074;-72
2023/08/15 08:49:25;;;;;;;3.55;1.20;;;;;;;22.87;82.78;100579.28;4956533;28;20135;-74
2023/08/15 08:52:29;;;;;;;3.10;0.93;;;;;;;22.93;83.58;100584.84;4955864;28;20071;-72
2023/08/15 08:55:34;;;;;;;4.43;1.10;;;;;;;23.02;84.44;100579.56;4955859;29;20477;-72
2023/08/15 08:58:41;;;;;;;2.70;0.95;;;;;;;23.11;85.03;100589.25;4955795;29;20049;-73
2023/08/15 09:01:45;;;;;;;5.35;1.20;;;;;;;23.19;87.00;100595.44;4944103;29;20058;-74
2023/08/15 09:04:48;;;;;;;5.20;1.00;;;;;;;23.30;84.77;100591.66;4956257;28;20054;-73
2023/08/15 09:07:52;;;;;;;4.03;0.90;;;;;;;23.40;85.93;100594.22;4943906;28;20058;-73
2023/08/15 09:11:03;;;;;;;3.65;0.60;;;;;;;23.44;85.42;100593.72;4955614;28;20186;-71
2023/08/15 09:14:08;;;;;;;1.95;0.70;;;;;;;23.49;84.67;100592.41;4955464;28;20062;-74
2023/08/15 09:17:12;;;;;;;1.55;0.60;;;;;;;23.49;80.18;100600.41;4955658;28;20409;-75
2023/08/15 09:20:18;;;;;;;2.50;0.73;;;;;;;23.56;83.82;100601.44;4954782;28;20508;-75
2023/08/15 09:23:22;;;;;;;2.05;0.60;;;;;;;23.71;85.22;100594.50;4954415;28;20070;-74
2023/08/15 09:26:26;;;;;;;2.20;0.73;;;;;;;23.81;81.04;100595.19;4955405;28;20416;-71
2023/08/15 09:29:29;;;;;;;2.88;0.70;;;;;;;23.87;78.15;100591.03;4956047;28;20071;-70
2023/08/15 09:32:32;;;;;;;1.42;0.68;;;;;;;23.94;76.45;100591.19;4956391;28;20074;-70
2023/08/15 09:35:38;;;;;;;3.78;0.70;;;;;;;24.05;75.35;100597.03;4956285;28;20101;-71
2023/08/15 09:38:53;;;;;;;3.08;0.60;;;;;;;24.17;73.79;100599.38;4944330;28;20193;-78
2023/08/15 09:41:58;;;;;;;3.38;0.40;;;;;;;24.24;73.08;100595.88;4954658;28;20152;-78
2023/08/15 09:45:03;;;;;;;2.83;0.40;;;;;;;24.33;72.35;100600.19;4954925;28;20050;-77
2023/08/15 09:48:07;;;;;;;1.33;0.40;;;;;;;24.47;71.49;100608.56;4943247;28;20539;-82
2023/08/15 09:51:13;;;;;;;2.28;0.40;;;;;;;24.49;72.57;100612.75;4955084;28;20070;-73
2023/08/15 09:54:19;;;;;;;2.58;0.65;;;;;;;24.54;73.69;100618.44;4954836;28;20054;-74
2023/08/15 09:57:22;;;;;;;2.03;0.50;;;;;;;24.61;72.05;100617.75;4954931;28;20155;-72
2023/08/15 10:00:25;;;;;;;2.63;0.57;;;;;;;24.72;71.95;100617.41;4954778;28;20102;-71
2023/08/15 10:03:51;;;;;;;3.25;0.70;;;;;;;24.85;69.83;100609.69;4942946;28;20118;-70
2023/08/15 10:06:56;;;;;;;2.20;0.70;;;;;;;24.99;72.45;100616.19;4954429;28;20095;-71
2023/08/15 10:10:05;;;;;;;1.67;0.70;;;;;;;25.05;70.83;100615.50;4953434;28;20143;-69
2023/08/15 10:13:09;;;;;;;1.65;0.63;;;;;;;25.06;69.61;100601.94;4954964;28;20105;-71
2023/08/15 10:16:17;;;;;;;3.63;0.75;;;;;;;25.17;70.16;100605.25;4954632;28;20101;-71
2023/08/15 10:19:33;;;;;;;4.25;0.75;;;;;;;25.25;70.93;100608.75;4954325;28;20061;-82
2023/08/15 10:42:56;;;;;;;;;;;;;;;;;;;;;
2023/08/15 11:01:19;;;;;;;4.22;1.30;;;;;;;25.19;67.32;100625.50;4876023;29;20088;-72
2023/08/15 11:04:24;;;;;;;1.25;0.50;;;;;;;25.06;68.21;100643.91;4865092;29;20450;-72
2023/08/15 11:07:27;;;;;;;1.70;0.50;;;;;;;24.92;68.25;100642.78;4894882;29;20183;-74
2023/08/15 11:10:35;;;;;;;1.40;0.60;;;;;;;24.82;70.00;100653.66;4922122;29;20138;-75
2023/08/15 11:13:58;;;;;;;2.95;0.70;;;;;;;24.72;69.95;100652.16;4935026;29;20076;-75
2023/08/15 11:17:01;;;;;;;6.32;2.47;;;;;;;24.58;71.44;100654.50;4922776;29;20132;-74
2023/08/15 11:20:05;;;;;;;6.30;1.00;;;;;;;24.53;75.12;100658.69;4922707;29;20050;-80
2023/08/15 11:23:09;;;;;;;4.57;1.38;;;;;;;24.43;76.87;100653.50;4934000;29;20061;-72
2023/08/15 11:26:18;;;;;;;4.90;1.50;;;;;;;24.30;74.58;100656.66;4934158;29;20051;-73
2023/08/15 11:29:21;;;;;;;3.33;1.35;;;;;;;24.20;77.05;100661.31;4934554;29;20462;-73
2023/08/15 11:32:25;;;;;;;3.38;1.30;;;;;;;24.09;77.45;100666.97;4922218;29;20154;-72
2023/08/15 11:35:27;;;;;;;3.92;1.35;;;;;;;23.93;82.85;100669.63;4933821;29;20049;-74
2023/08/15 11:38:32;;;;;;;6.50;1.65;;;;;;;23.85;86.21;100681.13;4933691;29;20058;-76
2023/08/15 11:41:36;;;;;;;5.40;1.42;;;;;;;23.74;87.00;100687.63;4933808;29;20536;-71
2023/08/15 11:44:40;;;;;;;4.05;1.40;;;;;;;23.60;88.87;100693.50;4933946;29;20481;-70
2023/08/15 11:48:04;;;;;;;5.85;1.75;;;;;;;23.50;91.79;100688.31;4934450;29;20090;-71
2023/08/15 11:51:09;;;;;;;9.13;2.30;;;;;;;23.36;93.27;100687.09;4934495;29;20055;-74
2023/08/15 11:54:15;;;;;;;9.90;3.13;;;;;;;23.19;96.58;100706.66;4922272;29;20533;-73
2023/08/15 11:57:37;;;;;;;7.63;2.10;;;;;;;23.07;98.68;100715.91;4934233;29;20046;-73
2023/08/15 12:00:41;;;;;;;7.68;1.83;;;;;;;23.00;99.12;100701.53;4922907;29;20093;-73
2023/08/15 12:03:45;;;;;;;8.93;2.08;;;;;;;22.93;99.13;100702.16;4933847;29;20050;-73
2023/08/15 12:06:50;;;;;;;4.57;2.17;;;;;;;22.80;99.90;100676.88;4934137;29;20103;-73
2023/08/15 12:09:55;;;;;;;3.92;2.13;;;;;;;22.74;100.00;100649.00;4934537;29;20066;-73
2023/08/15 12:13:02;;;;;;;5.35;2.00;;;;;;;22.70;100.00;100639.66;4922632;29;20047;-73
2023/08/15 12:16:08;;;;;;;5.60;2.50;;;;;;;22.66;100.00;100630.31;4929915;28;20074;-73
2023/08/15 12:19:13;;;;;;;7.28;2.42;;;;;;;22.57;100.00;100620.56;4940009;28;20058;-74
2023/08/15 12:22:17;;;;;;;7.32;2.67;;;;;;;22.46;100.00;100627.84;4941013;28;20512;-71
2023/08/15 12:25:23;;;;;;;7.28;2.60;;;;;;;22.44;100.00;100635.13;4942150;28;20102;-72
2023/08/15 12:28:32;;;;;;;7.93;2.50;;;;;;;22.43;100.00;100640.59;4942988;28;20058;-71
2023/08/15 12:31:36;;;;;;;11.27;2.88;;;;;;;22.43;100.00;100657.44;4940086;28;20050;-72
2023/08/15 12:34:40;;;;;;;6.32;2.33;;;;;;;22.47;100.00;100666.81;4941658;28;20058;-72
2023/08/15 12:37:43;;;;;;;5.60;2.40;;;;;;;22.52;100.00;100672.47;4942403;28;20122;-72
2023/08/15 12:40:47;;;;;;;8.82;2.63;;;;;;;22.49;100.00;100696.81;4931239;28;20504;-72
2023/08/15 12:43:51;;;;;;;4.93;1.98;;;;;;;22.47;100.00;100695.28;4941548;28;20126;-73
2023/08/15 12:46:54;;;;;;;9.25;2.90;;;;;;;22.67;100.00;100687.94;4938858;28;20104;-72
2023/08/15 12:49:59;;;;;;;4.13;2.05;;;;;;;22.85;100.00;100691.41;4937299;28;20115;-72
2023/08/15 12:53:02;;;;;;;4.32;1.95;;;;;;;23.10;100.00;100692.44;4933605;29;20132;-75
2023/08/15 12:56:06;;;;;;;4.40;2.25;;;;;;;23.28;100.00;100689.69;4933578;29;20042;-72
2023/08/15 12:59:10;;;;;;;5.63;2.20;;;;;;;23.29;100.00;100706.53;4933613;29;20047;-73
2023/08/15 13:02:14;;;;;;;5.68;1.92;;;;;;;23.29;100.00;100699.38;4941504;29;20130;-72
2023/08/15 13:05:19;;;;;;;3.38;1.88;;;;;;;23.14;98.94;100706.31;4943270;28;20046;-71
2023/08/15 13:08:22;;;;;;;6.97;2.15;;;;;;;23.05;99.07;100704.56;4943728;28;20468;-71
2023/08/15 13:11:27;;;;;;;6.10;2.00;;;;;;;22.88;99.19;100696.44;4939228;28;20099;-73
2023/08/15 13:14:31;;;;;;;8.63;2.90;;;;;;;22.95;100.00;100699.34;4941538;28;20102;-79
2023/08/15 13:17:34;;;;;;;8.57;3.17;;;;;;;23.04;100.00;100708.22;4945154;28;20054;-74
2023/08/15 13:20:38;;;;;;;4.68;2.08;;;;;;;23.04;100.00;100700.22;4951450;28;20130;-73
2023/08/15 13:23:44;;;;;;;5.03;2.30;;;;;;;22.96;100.00;100704.50;4943660;29;20044;-75
2023/08/15 13:27:00;;;;;;;9.73;3.08;;;;;;;22.95;100.00;100708.19;4956359;28;20081;-76
2023/08/15 13:30:17;;;;;;;8.27;2.63;;;;;;;22.88;100.00;100709.78;4955551;28;20046;-75
2023/08/15 13:33:21;;;;;;;7.50;2.53;;;;;;;22.83;100.00;100705.88;4955266;28;20385;-75
2023/08/15 13:36:31;;;;;;;4.78;2.45;;;;;;;22.78;100.00;100701.00;4955255;28;20164;-78
2023/08/15 13:39:34;;;;;;;4.78;2.00;;;;;;;22.73;100.00;100705.97;4955265;28;20118;-76
2023/08/15 13:42:41;;;;;;;6.85;2.40;;;;;;;22.75;100.00;100698.69;4942988;28;20129;-82
2023/08/15 13:45:45;;;;;;;4.68;2.45;;;;;;;22.80;100.00;100696.38;4955118;28;20042;-78
2023/08/15 13:48:48;;;;;;;5.22;2.08;;;;;;;22.79;100.00;100696.53;4953759;28;20058;-81
2023/08/15 13:52:17;;;;;;;7.80;2.28;;;;;;;22.77;100.00;100699.34;4955367;28;20437;-88
2023/08/15 13:55:20;;;;;;;7.03;2.25;;;;;;;22.79;100.00;100708.03;4932322;28;20062;-81
2023/08/15 13:58:24;;;;;;;5.43;2.35;;;;;;;22.71;100.00;100710.63;4955455;28;20101;-67
2023/08/15 14:01:31;;;;;;;4.45;2.00;;;;;;;22.72;100.00;100717.66;4954890;29;20038;-77
2023/08/15 14:04:34;;;;;;;7.90;2.55;;;;;;;22.66;100.00;100720.91;4955160;28;20214;-74
2023/08/15 14:07:40;;;;;;;11.00;3.15;;;;;;;22.61;100.00;100704.53;4955411;28;20118;-76
2023/08/15 14:10:43;;;;;;;4.95;2.20;;;;;;;22.48;100.00;100713.75;4954804;28;20054;-71
2023/08/15 14:13:47;;;;;;;6.20;2.40;;;;;;;22.49;100.00;100715.47;4954824;28;20049;-72
2023/08/15 14:16:51;;;;;;;4.57;2.20;;;;;;;22.42;100.00;100727.69;4943026;28;20417;-83
2023/08/15 14:20:42;;;;;;;6.35;1.98;;;;;;;22.27;100.00;100738.06;4945766;28;20114;-76
2023/08/15 14:23:46;;;;;;;6.28;2.28;;;;;;;22.28;100.00;100738.88;4954495;28;20046;-76
2023/08/15 14:26:50;;;;;;;5.63;2.10;;;;;;;22.32;100.00;100734.09;4953959;28;20508;-74
2023/08/15 14:30:45;;;;;;;7.68;2.22;;;;;;;22.31;100.00;100733.25;4954857;28;20051;-78
2023/08/15 14:33:55;;;;;;;7.63;2.42;;;;;;;22.33;100.00;100736.59;4954375;28;20062;-80
2023/08/15 14:37:00;;;;;;;6.13;1.80;;;;;;;22.28;100.00;100721.06;4954343;28;20049;-76
2023/08/15 14:40:05;;;;;;;6.68;1.88;;;;;;;22.29;100.00;100704.09;4953731;28;20049;-74
2023/08/15 14:43:11;;;;;;;6.78;2.28;;;;;;;22.31;100.00;100701.28;4954439;28;20042;-74
2023/08/15 14:46:23;;;;;;;8.23;3.10;;;;;;;22.39;100.00;100693.34;4954119;28;20469;-75
2023/08/15 14:49:27;;;;;;;13.10;2.55;;;;;;;22.57;100.00;100682.69;4954087;28;20054;-77
2023/08/15 14:52:38;;;;;;;6.40;2.45;;;;;;;23.01;100.00;100681.88;4954678;28;20069;-77
2023/08/15 14:55:41;;;;;;;6.35;2.08;;;;;;;23.58;100.00;100663.47;4944131;28;20057;-78
2023/08/15 14:58:56;;;;;;;6.15;1.60;;;;;;;23.59;100.00;100675.84;4941220;29;20511;-78